createdAt,value
2023-06-15T09:02:05.516Z,2.00
2023-06-15T09:07:05.341Z,2.30
2023-06-15T09:12:05.265Z,2.30
2023-06-15T09:17:07.638Z,2.00
2023-06-15T09:22:05.175Z,2.10
2023-06-15T09:27:05.141Z,2.00
2023-06-15T09:32:05.013Z,2.30
2023-06-15T09:37:05.494Z,2.20
2023-06-15T09:42:05.019Z,2.20
2023-06-15T09:47:04.887Z,2.00
2023-06-15T09:52:04.913Z,2.10
2023-06-15T09:57:04.814Z,2.00
2023-06-15T10:02:04.754Z,2.20
2023-06-15T10:07:04.813Z,2.00
2023-06-15T10:12:04.607Z,2.00
2023-06-15T10:17:04.596Z,2.00
2023-06-15T10:22:04.518Z,2.30
2023-06-15T10:27:04.509Z,2.20
2023-06-15T10:32:04.449Z,2.30
2023-06-15T10:37:04.339Z,2.00
2023-06-15T10:42:04.304Z,2.20
2023-06-15T10:47:04.223Z,2.20
2023-06-15T10:52:04.314Z,2.20
2023-06-15T10:57:04.167Z,2.20
2023-06-15T11:02:04.107Z,2.40
2023-06-15T11:07:04.301Z,2.40
2023-06-15T11:12:04.001Z,2.10
2023-06-15T11:17:03.958Z,2.10
2023-06-15T11:22:03.891Z,2.40
2023-06-15T11:27:03.874Z,2.40
2023-06-15T11:32:03.786Z,2.60
2023-06-15T11:37:03.726Z,2.20
2023-06-15T11:42:03.946Z,2.50
2023-06-15T11:47:03.623Z,2.40
2023-06-15T11:52:03.565Z,2.50
2023-06-15T11:57:03.509Z,2.50
2023-06-15T12:02:03.528Z,2.30
2023-06-15T12:07:03.783Z,2.30
2023-06-15T12:12:03.337Z,2.30
2023-06-15T12:17:03.319Z,2.20
2023-06-15T12:22:03.281Z,2.40
2023-06-15T12:27:03.167Z,2.30
2023-06-15T12:32:03.128Z,2.10
2023-06-15T12:37:03.067Z,2.20
2023-06-15T12:42:03.795Z,2.50
2023-06-15T12:47:02.971Z,2.30
2023-06-15T12:52:02.907Z,2.20
2023-06-15T12:57:02.857Z,2.20
2023-06-15T13:02:02.895Z,2.00
2023-06-15T13:07:02.739Z,2.00
2023-06-15T13:12:02.712Z,2.20
2023-06-15T13:17:02.699Z,2.10
2023-06-15T13:22:02.673Z,2.30
2023-06-15T13:27:02.546Z,1.80
2023-06-15T13:32:02.541Z,2.00
2023-06-15T13:37:02.419Z,2.10
2023-06-15T13:42:02.506Z,1.80
2023-06-15T13:47:02.344Z,2.10
2023-06-15T13:52:02.322Z,2.10
2023-06-15T13:57:02.244Z,1.80
2023-06-15T14:02:02.490Z,2.10
2023-06-15T14:07:02.099Z,1.80
2023-06-15T14:12:02.101Z,2.10
2023-06-15T14:17:02.132Z,1.80
2023-06-15T14:22:01.999Z,1.80
2023-06-15T14:27:01.970Z,1.70
2023-06-15T14:32:02.121Z,1.90
2023-06-15T14:37:01.848Z,1.80
2023-06-15T14:42:01.792Z,1.90
2023-06-15T14:47:01.965Z,1.70
2023-06-15T14:52:01.665Z,1.80
2023-06-15T14:57:01.637Z,1.90
2023-06-15T15:02:01.667Z,1.70
2023-06-15T15:07:01.507Z,1.80
2023-06-15T15:12:01.444Z,1.70
2023-06-15T15:17:01.461Z,1.80
2023-06-15T15:22:01.349Z,1.70
2023-06-15T15:27:01.339Z,1.80
2023-06-15T15:32:01.225Z,1.70
2023-06-15T15:37:01.221Z,1.70
2023-06-15T15:42:01.198Z,1.60
2023-06-15T15:47:01.074Z,1.80
2023-06-15T15:52:01.061Z,1.80
2023-06-15T15:57:08.000Z,1.70
2023-06-15T16:02:00.893Z,2.00
2023-06-15T16:07:00.873Z,2.10
2023-06-15T16:12:01.227Z,2.50
2023-06-15T16:17:03.591Z,2.20
2023-06-15T16:22:00.677Z,2.30
2023-06-15T16:27:00.625Z,2.00
2023-06-15T16:32:00.566Z,1.90
2023-06-15T16:37:00.542Z,2.20
2023-06-15T16:42:00.565Z,2.10
2023-06-15T16:47:00.410Z,2.00
2023-06-15T16:52:00.366Z,1.90
2023-06-15T16:57:00.341Z,2.30
2023-06-15T17:02:00.315Z,2.30
2023-06-15T17:07:00.207Z,2.10
2023-06-15T17:12:00.175Z,2.10
2023-06-15T17:17:00.126Z,1.80
2023-06-15T17:22:00.087Z,2.10
2023-06-15T17:27:03.029Z,2.20
2023-06-15T17:31:59.937Z,2.10
2023-06-15T17:36:59.924Z,2.10
2023-06-15T17:41:59.848Z,2.10
2023-06-15T17:46:59.797Z,2.50
2023-06-15T17:51:59.740Z,2.40
2023-06-15T17:56:59.850Z,2.30
2023-06-15T18:01:59.614Z,2.30
2023-06-15T18:06:59.568Z,2.60
2023-06-15T18:11:59.529Z,2.80
2023-06-15T18:16:59.498Z,2.70
2023-06-15T18:21:59.413Z,2.70
2023-06-15T18:26:59.349Z,2.60
2023-06-15T18:31:59.284Z,2.50
2023-06-15T18:36:59.269Z,2.90
2023-06-15T18:41:59.200Z,2.80
2023-06-15T18:46:59.160Z,2.90
2023-06-15T18:51:59.092Z,2.80
2023-06-15T18:56:59.102Z,2.70
2023-06-15T19:01:59.117Z,2.80
2023-06-15T19:06:58.914Z,3.10
2023-06-15T19:11:58.853Z,3.10
2023-06-15T19:16:58.839Z,3.00
2023-06-15T19:21:59.137Z,2.90
2023-06-15T19:26:58.691Z,2.80
2023-06-15T19:31:58.653Z,3.00
2023-06-15T19:36:58.626Z,2.90
2023-06-15T19:41:58.529Z,2.90
2023-06-15T19:46:58.629Z,2.90
2023-06-15T19:51:58.438Z,3.00
2023-06-15T19:56:58.416Z,2.70
2023-06-15T20:01:58.396Z,3.00
2023-06-15T20:06:58.272Z,3.30
2023-06-15T20:11:58.205Z,2.90
2023-06-15T20:16:58.179Z,3.00
2023-06-15T20:21:58.102Z,2.90
2023-06-15T20:26:58.157Z,3.50
2023-06-15T20:31:58.014Z,3.20
2023-06-15T20:36:57.964Z,3.70
2023-06-15T20:41:57.874Z,3.80
2023-06-15T20:46:57.891Z,3.60
2023-06-15T20:51:57.776Z,3.60
2023-06-15T20:56:57.771Z,3.40
2023-06-15T21:01:57.649Z,3.50
2023-06-15T21:06:57.605Z,3.20
2023-06-15T21:11:57.648Z,3.00
2023-06-15T21:16:57.588Z,3.40
2023-06-15T21:21:57.436Z,3.80
2023-06-15T21:26:57.391Z,3.40
2023-06-15T21:31:57.358Z,3.50
2023-06-15T21:36:57.330Z,3.40
2023-06-15T21:41:57.244Z,3.30
2023-06-15T21:46:57.158Z,3.50
2023-06-15T21:51:57.116Z,3.80
2023-06-15T21:56:57.085Z,3.30
2023-06-15T22:01:57.045Z,3.10
2023-06-15T22:06:56.964Z,3.20
2023-06-15T22:11:56.905Z,3.10
2023-06-15T22:16:57.147Z,3.20
2023-06-15T22:21:56.801Z,2.90
2023-06-15T22:26:56.733Z,2.70
2023-06-15T22:31:56.709Z,2.90
2023-06-15T22:36:56.672Z,3.10
2023-06-15T22:41:56.573Z,3.00
2023-06-15T22:46:56.585Z,2.90
2023-06-15T22:51:56.488Z,2.90
2023-06-15T22:56:56.435Z,3.00
2023-06-15T23:01:56.433Z,3.10
2023-06-15T23:06:56.303Z,2.90
2023-06-15T23:11:56.246Z,2.70
2023-06-15T23:16:56.293Z,3.10
2023-06-15T23:21:56.143Z,3.20
2023-06-15T23:26:56.091Z,3.00
